sensor_id;sensor_type;location;lat;lon;timestamp;pressure;altitude;pressure_sealevel;temperature;humidity
32243;BME280;18731;42.830;24.390;2023-03-04T04:01:25;94422.59;;;6.16;83.97
32243;BME280;18731;42.830;24.390;2023-03-04T04:03:51;94422.28;;;6.17;84.25
32243;BME280;18731;42.830;24.390;2023-03-04T04:06:17;94426.00;;;6.16;84.29
32243;BME280;18731;42.830;24.390;2023-03-04T04:08:43;94422.47;;;6.21;84.51
32243;BME280;18731;42.830;24.390;2023-03-04T04:11:10;94426.19;;;6.20;84.17
32243;BME280;18731;42.830;24.390;2023-03-04T04:13:35;94422.47;;;6.21;84.05
32243;BME280;18731;42.830;24.390;2023-03-04T04:16:01;94426.97;;;6.20;83.89
32243;BME280;18731;42.830;24.390;2023-03-04T04:18:27;94422.16;;;6.22;83.91
32243;BME280;18731;42.830;24.390;2023-03-04T04:20:53;94406.31;;;6.08;84.22
32243;BME280;18731;42.830;24.390;2023-03-04T04:23:18;94419.16;;;6.15;84.01
32243;BME280;18731;42.830;24.390;2023-03-04T04:25:46;94419.75;;;6.12;84.09
32243;BME280;18731;42.830;24.390;2023-03-04T04:28:11;94420.72;;;6.16;84.26
32243;BME280;18731;42.830;24.390;2023-03-04T04:30:37;94422.16;;;6.22;84.04
32243;BME280;18731;42.830;24.390;2023-03-04T04:33:03;94423.25;;;6.21;84.06
32243;BME280;18731;42.830;24.390;2023-03-04T04:35:31;94420.13;;;6.19;84.02
32243;BME280;18731;42.830;24.390;2023-03-04T04:37:57;94420.13;;;6.19;84.20
32243;BME280;18731;42.830;24.390;2023-03-04T04:40:22;94423.25;;;6.21;84.05
32243;BME280;18731;42.830;24.390;2023-03-04T04:42:48;94421.69;;;6.20;83.93
32243;BME280;18731;42.830;24.390;2023-03-04T04:45:15;94426.97;;;6.20;84.04
32243;BME280;18731;42.830;24.390;2023-03-04T04:47:41;94426.69;;;6.22;84.14
32243;BME280;18731;42.830;24.390;2023-03-04T04:50:07;94423.72;;;6.23;84.10
32243;BME280;18731;42.830;24.390;2023-03-04T04:52:33;94430.28;;;6.26;84.40
32243;BME280;18731;42.830;24.390;2023-03-04T04:54:58;94431.06;;;6.26;84.44
32243;BME280;18731;42.830;24.390;2023-03-04T04:57:24;94433.59;;;6.31;84.33
32243;BME280;18731;42.830;24.390;2023-03-04T04:59:49;94436.25;;;6.31;84.09
32243;BME280;18731;42.830;24.390;2023-03-04T05:02:15;94443.44;;;6.31;83.84
32243;BME280;18731;42.830;24.390;2023-03-04T05:04:41;94442.03;;;6.33;83.67
32243;BME280;18731;42.830;24.390;2023-03-04T05:07:06;94430.72;;;6.19;83.65
32243;BME280;18731;42.830;24.390;2023-03-04T05:09:32;94446.38;;;6.29;83.47
32243;BME280;18731;42.830;24.390;2023-03-04T05:11:57;94422.75;;;6.19;83.52
32243;BME280;18731;42.830;24.390;2023-03-04T05:14:23;94446.97;;;6.26;83.56
32243;BME280;18731;42.830;24.390;2023-03-04T05:16:49;94447.59;;;6.23;83.70
32243;BME280;18731;42.830;24.390;2023-03-04T05:19:14;94454.44;;;6.24;83.56
32243;BME280;18731;42.830;24.390;2023-03-04T05:21:40;94447.59;;;6.23;83.88
32243;BME280;18731;42.830;24.390;2023-03-04T05:24:06;94446.97;;;6.26;84.05
32243;BME280;18731;42.830;24.390;2023-03-04T05:26:31;94451.38;;;6.31;83.73
32243;BME280;18731;42.830;24.390;2023-03-04T05:28:57;94441.25;;;6.33;83.45
32243;BME280;18731;42.830;24.390;2023-03-04T05:31:22;94440.00;;;6.30;83.29
32243;BME280;18731;42.830;24.390;2023-03-04T05:33:48;94449.22;;;6.33;83.17
32243;BME280;18731;42.830;24.390;2023-03-04T05:36:14;94447.34;;;6.33;83.21
32243;BME280;18731;42.830;24.390;2023-03-04T05:38:39;94449.50;;;6.31;83.54
32243;BME280;18731;42.830;24.390;2023-03-04T05:41:06;94447.94;;;6.30;83.92
32243;BME280;18731;42.830;24.390;2023-03-04T05:43:32;94449.09;;;6.38;83.87
32243;BME280;18731;42.830;24.390;2023-03-04T05:46:01;94442.41;;;6.40;83.71
32243;BME280;18731;42.830;24.390;2023-03-04T05:48:27;94448.06;;;6.48;83.42
32243;BME280;18731;42.830;24.390;2023-03-04T05:50:58;94440.09;;;6.48;83.07
32243;BME280;18731;42.830;24.390;2023-03-04T05:53:24;94440.41;;;6.46;82.99
32243;BME280;18731;42.830;24.390;2023-03-04T05:55:49;94409.28;;;6.29;82.85
32243;BME280;18731;42.830;24.390;2023-03-04T05:58:16;94452.16;;;6.54;82.81
32243;BME280;18731;42.830;24.390;2023-03-04T06:00:42;94450.81;;;6.65;82.46
32243;BME280;18731;42.830;24.390;2023-03-04T06:03:16;94444.78;;;6.73;82.43
32243;BME280;18731;42.830;24.390;2023-03-04T06:05:42;94453.56;;;6.82;82.28
32243;BME280;18731;42.830;24.390;2023-03-04T06:08:08;94453.09;;;6.80;81.88
32243;BME280;18731;42.830;24.390;2023-03-04T06:10:34;94452.94;;;6.85;81.68
32243;BME280;18731;42.830;24.390;2023-03-04T06:12:59;94441.50;;;6.76;81.56
32243;BME280;18731;42.830;24.390;2023-03-04T06:15:25;94453.25;;;6.84;81.59
32243;BME280;18731;42.830;24.390;2023-03-04T06:17:50;94446.34;;;6.74;81.70
32243;BME280;18731;42.830;24.390;2023-03-04T06:20:16;94460.78;;;6.90;81.57
32243;BME280;18731;42.830;24.390;2023-03-04T06:22:42;94467.38;;;7.01;81.55
32243;BME280;18731;42.830;24.390;2023-03-04T06:25:07;94471.66;;;7.11;80.97
32243;BME280;18731;42.830;24.390;2023-03-04T06:27:33;94459.47;;;7.10;81.05
32243;BME280;18731;42.830;24.390;2023-03-04T06:29:59;94463.38;;;7.13;80.46
32243;BME280;18731;42.830;24.390;2023-03-04T06:32:26;94466.06;;;7.21;80.17
32243;BME280;18731;42.830;24.390;2023-03-04T06:34:52;94465.16;;;7.26;79.73
32243;BME280;18731;42.830;24.390;2023-03-04T06:37:18;94464.13;;;7.44;79.07
32243;BME280;18731;42.830;24.390;2023-03-04T06:39:44;94468.06;;;7.64;77.79
32243;BME280;18731;42.830;24.390;2023-03-04T06:42:10;94468.84;;;7.64;77.10
32243;BME280;18731;42.830;24.390;2023-03-04T06:44:36;94473.72;;;7.71;77.33
32243;BME280;18731;42.830;24.390;2023-03-04T06:47:02;94470.94;;;7.85;76.48
32243;BME280;18731;42.830;24.390;2023-03-04T06:49:28;94466.56;;;7.89;76.77
32243;BME280;18731;42.830;24.390;2023-03-04T06:51:53;94452.19;;;7.81;75.77
32243;BME280;18731;42.830;24.390;2023-03-04T06:54:19;94461.75;;;8.08;75.22
32243;BME280;18731;42.830;24.390;2023-03-04T06:56:44;94459.91;;;8.34;74.12
32243;BME280;18731;42.830;24.390;2023-03-04T06:59:10;94469.56;;;8.65;73.05
32243;BME280;18731;42.830;24.390;2023-03-04T07:01:36;94463.63;;;8.68;71.85
32243;BME280;18731;42.830;24.390;2023-03-04T07:04:02;94468.00;;;8.64;71.88
32243;BME280;18731;42.830;24.390;2023-03-04T07:06:28;94468.75;;;8.82;71.07
32243;BME280;18731;42.830;24.390;2023-03-04T07:08:55;94470.44;;;9.03;70.65
32243;BME280;18731;42.830;24.390;2023-03-04T07:11:21;94473.03;;;9.21;69.63
32243;BME280;18731;42.830;24.390;2023-03-04T07:13:47;94467.59;;;9.47;69.44
32243;BME280;18731;42.830;24.390;2023-03-04T07:16:16;94463.97;;;9.51;67.69
32243;BME280;18731;42.830;24.390;2023-03-04T07:18:42;94462.63;;;9.37;68.59
32243;BME280;18731;42.830;24.390;2023-03-04T07:21:08;94465.84;;;9.13;69.58
32243;BME280;18731;42.830;24.390;2023-03-04T07:23:35;94461.97;;;9.01;70.10
32243;BME280;18731;42.830;24.390;2023-03-04T07:26:00;94466.31;;;9.15;69.13
32243;BME280;18731;42.830;24.390;2023-03-04T07:28:26;94459.25;;;9.19;70.18
32243;BME280;18731;42.830;24.390;2023-03-04T07:30:52;94458.59;;;9.30;68.71
32243;BME280;18731;42.830;24.390;2023-03-04T07:33:18;94459.47;;;9.43;67.66
32243;BME280;18731;42.830;24.390;2023-03-04T07:35:43;94450.81;;;9.76;67.22
32243;BME280;18731;42.830;24.390;2023-03-04T07:38:09;94447.00;;;10.06;65.55
32243;BME280;18731;42.830;24.390;2023-03-04T07:40:35;94451.31;;;9.98;64.62
32243;BME280;18731;42.830;24.390;2023-03-04T07:43:00;94444.81;;;10.29;64.52
32243;BME280;18731;42.830;24.390;2023-03-04T07:45:26;94439.53;;;10.62;64.38
32243;BME280;18731;42.830;24.390;2023-03-04T07:47:52;94436.25;;;10.77;62.73
32243;BME280;18731;42.830;24.390;2023-03-04T07:50:18;94434.19;;;11.07;62.33
32243;BME280;18731;42.830;24.390;2023-03-04T07:52:46;94432.44;;;11.11;60.87
32243;BME280;18731;42.830;24.390;2023-03-04T07:55:13;94435.00;;;11.20;60.05
32243;BME280;18731;42.830;24.390;2023-03-04T07:57:45;94428.78;;;11.40;59.20
32243;BME280;18731;42.830;24.390;2023-03-04T08:00:12;94434.34;;;11.47;58.24
32243;BME280;18731;42.830;24.390;2023-03-04T08:02:39;94433.91;;;11.33;57.80
32243;BME280;18731;42.830;24.390;2023-03-04T08:05:06;94433.66;;;11.26;58.54
32243;BME280;18731;42.830;24.390;2023-03-04T08:07:32;94432.22;;;11.28;57.81
32243;BME280;18731;42.830;24.390;2023-03-04T08:09:57;94429.22;;;11.30;56.04
32243;BME280;18731;42.830;24.390;2023-03-04T08:12:23;94434.78;;;11.37;56.24
32243;BME280;18731;42.830;24.390;2023-03-04T08:14:50;94418.97;;;11.44;57.74
32243;BME280;18731;42.830;24.390;2023-03-04T08:17:17;94417.53;;;11.47;57.58
32243;BME280;18731;42.830;24.390;2023-03-04T08:19:42;94415.84;;;11.42;57.62
32243;BME280;18731;42.830;24.390;2023-03-04T08:22:08;94413.19;;;11.42;58.31
32243;BME280;18731;42.830;24.390;2023-03-04T08:24:34;94410.75;;;11.49;58.62
32243;BME280;18731;42.830;24.390;2023-03-04T08:26:59;94414.75;;;11.55;57.52
32243;BME280;18731;42.830;24.390;2023-03-04T08:29:25;94408.50;;;11.51;57.89
32243;BME280;18731;42.830;24.390;2023-03-04T08:31:51;94410.41;;;11.63;58.60
32243;BME280;18731;42.830;24.390;2023-03-04T08:34:20;94412.94;;;11.72;57.95
32243;BME280;18731;42.830;24.390;2023-03-04T08:36:46;94415.53;;;11.80;57.27
32243;BME280;18731;42.830;24.390;2023-03-04T08:39:14;94411.84;;;11.85;56.07
32243;BME280;18731;42.830;24.390;2023-03-04T08:41:41;94411.06;;;11.60;58.16
32243;BME280;18731;42.830;24.390;2023-03-04T08:44:07;94402.03;;;11.65;57.95
32243;BME280;18731;42.830;24.390;2023-03-04T08:46:35;94404.25;;;11.63;57.81
32243;BME280;18731;42.830;24.390;2023-03-04T08:49:02;94401.56;;;11.75;56.54
32243;BME280;18731;42.830;24.390;2023-03-04T08:51:27;94391.09;;;11.94;56.43
32243;BME280;18731;42.830;24.390;2023-03-04T08:53:53;94381.09;;;11.79;56.00
32243;BME280;18731;42.830;24.390;2023-03-04T08:56:19;94385.06;;;11.97;57.11
32243;BME280;18731;42.830;24.390;2023-03-04T08:58:45;94394.38;;;12.43;57.69
32243;BME280;18731;42.830;24.390;2023-03-04T09:01:12;94388.38;;;12.62;54.47
32243;BME280;18731;42.830;24.390;2023-03-04T09:03:38;94383.59;;;12.99;54.25
32243;BME280;18731;42.830;24.390;2023-03-04T09:06:06;94376.63;;;13.42;52.91
32243;BME280;18731;42.830;24.390;2023-03-04T09:08:32;94372.91;;;13.46;51.13
32243;BME280;18731;42.830;24.390;2023-03-04T09:10:58;94366.44;;;13.16;52.02
32243;BME280;18731;42.830;24.390;2023-03-04T09:13:27;94369.78;;;13.13;53.06
32243;BME280;18731;42.830;24.390;2023-03-04T09:15:53;94368.31;;;13.47;52.02
32243;BME280;18731;42.830;24.390;2023-03-04T09:18:21;94358.66;;;13.42;53.35
32243;BME280;18731;42.830;24.390;2023-03-04T09:20:47;94355.22;;;13.26;51.36
32243;BME280;18731;42.830;24.390;2023-03-04T09:23:13;94360.44;;;12.91;51.52
32243;BME280;18731;42.830;24.390;2023-03-04T09:25:39;94347.22;;;12.82;53.73
32243;BME280;18731;42.830;24.390;2023-03-04T09:28:05;94358.50;;;12.60;52.35
32243;BME280;18731;42.830;24.390;2023-03-04T09:30:32;94353.66;;;12.50;52.85
32243;BME280;18731;42.830;24.390;2023-03-04T09:32:58;94347.38;;;12.30;52.50
32243;BME280;18731;42.830;24.390;2023-03-04T09:35:23;94345.25;;;12.36;52.90
32243;BME280;18731;42.830;24.390;2023-03-04T09:37:49;94342.03;;;12.30;52.63
32243;BME280;18731;42.830;24.390;2023-03-04T09:40:25;94347.97;;;11.96;52.88
32243;BME280;18731;42.830;24.390;2023-03-04T09:42:58;94348.53;;;11.89;54.26
32243;BME280;18731;42.830;24.390;2023-03-04T09:45:32;94346.41;;;11.95;54.25
32243;BME280;18731;42.830;24.390;2023-03-04T09:47:59;94326.72;;;11.75;53.72
32243;BME280;18731;42.830;24.390;2023-03-04T09:50:27;94340.31;;;11.70;53.80
32243;BME280;18731;42.830;24.390;2023-03-04T09:53:23;94340.09;;;11.63;54.23
32243;BME280;18731;42.830;24.390;2023-03-04T09:55:51;94333.19;;;11.62;54.35
32243;BME280;18731;42.830;24.390;2023-03-04T09:58:43;94334.25;;;11.45;54.81
32243;BME280;18731;42.830;24.390;2023-03-04T10:01:28;94337.59;;;11.30;55.25
32243;BME280;18731;42.830;24.390;2023-03-04T10:04:17;94331.59;;;11.08;55.99
32243;BME280;18731;42.830;24.390;2023-03-04T10:06:43;94332.94;;;11.02;57.22
32243;BME280;18731;42.830;24.390;2023-03-04T10:09:20;94330.13;;;10.74;56.85
32243;BME280;18731;42.830;24.390;2023-03-04T10:12:09;94324.22;;;10.56;57.12
32243;BME280;18731;42.830;24.390;2023-03-04T10:14:39;94330.88;;;10.50;57.25
32243;BME280;18731;42.830;24.390;2023-03-04T10:19:58;94322.31;;;10.57;57.62
32243;BME280;18731;42.830;24.390;2023-03-04T10:22:36;94327.00;;;10.60;57.04
32243;BME280;18731;42.830;24.390;2023-03-04T10:25:21;94318.53;;;10.58;56.88
32243;BME280;18731;42.830;24.390;2023-03-04T10:27:56;94313.41;;;10.53;56.58
32243;BME280;18731;42.830;24.390;2023-03-04T10:30:36;94308.06;;;10.41;56.53
32243;BME280;18731;42.830;24.390;2023-03-04T10:33:14;94304.13;;;10.38;56.43
32243;BME280;18731;42.830;24.390;2023-03-04T10:35:44;94305.56;;;10.36;56.69
32243;BME280;18731;42.830;24.390;2023-03-04T10:38:12;94296.97;;;10.51;56.93
32243;BME280;18731;42.830;24.390;2023-03-04T10:40:39;94296.09;;;10.83;57.60
32243;BME280;18731;42.830;24.390;2023-03-04T10:43:05;94294.78;;;11.54;55.73
32243;BME280;18731;42.830;24.390;2023-03-04T10:45:38;94279.00;;;12.17;54.24
32243;BME280;18731;42.830;24.390;2023-03-04T10:48:04;94280.78;;;12.72;52.18
32243;BME280;18731;42.830;24.390;2023-03-04T10:50:30;94279.81;;;13.12;51.37
32243;BME280;18731;42.830;24.390;2023-03-04T10:52:59;94285.00;;;13.21;50.92
32243;BME280;18731;42.830;24.390;2023-03-04T10:58:01;94268.94;;;13.75;50.01
32243;BME280;18731;42.830;24.390;2023-03-04T11:00:31;94260.81;;;13.91;49.37
32243;BME280;18731;42.830;24.390;2023-03-04T11:05:46;94257.31;;;13.32;49.96
32243;BME280;18731;42.830;24.390;2023-03-04T11:08:20;94249.97;;;13.29;49.65
32243;BME280;18731;42.830;24.390;2023-03-04T11:10:46;94243.78;;;12.94;50.27
32243;BME280;18731;42.830;24.390;2023-03-04T11:13:22;94247.25;;;12.63;51.29
32243;BME280;18731;42.830;24.390;2023-03-04T11:18:27;94244.16;;;11.73;53.60
32243;BME280;18731;42.830;24.390;2023-03-04T11:20:57;94239.09;;;11.56;54.17
32243;BME280;18731;42.830;24.390;2023-03-04T11:23:38;94237.63;;;11.31;54.93
32243;BME280;18731;42.830;24.390;2023-03-04T11:26:13;94233.78;;;11.04;55.37
32243;BME280;18731;42.830;24.390;2023-03-04T11:28:53;94229.25;;;10.80;56.82
32243;BME280;18731;42.830;24.390;2023-03-04T11:31:27;94235.25;;;10.65;57.37
32243;BME280;18731;42.830;24.390;2023-03-04T11:36:56;94228.59;;;10.58;57.68
32243;BME280;18731;42.830;24.390;2023-03-04T11:39:38;94223.59;;;10.69;58.14
32243;BME280;18731;42.830;24.390;2023-03-04T11:44:50;94220.34;;;10.63;57.69
32243;BME280;18731;42.830;24.390;2023-03-04T11:47:38;94215.78;;;10.76;57.78
32243;BME280;18731;42.830;24.390;2023-03-04T11:53:32;94205.97;;;10.92;57.13
32243;BME280;18731;42.830;24.390;2023-03-04T11:56:31;94181.50;;;10.90;57.06
32243;BME280;18731;42.830;24.390;2023-03-04T12:04:26;94191.44;;;11.58;55.76
32243;BME280;18731;42.830;24.390;2023-03-04T12:12:39;94179.31;;;12.04;53.43
32243;BME280;18731;42.830;24.390;2023-03-04T12:24:25;94175.06;;;11.59;54.00
32243;BME280;18731;42.830;24.390;2023-03-04T12:26:35;94166.78;;;11.65;53.52
32243;BME280;18731;42.830;24.390;2023-03-04T12:29:17;94166.69;;;11.89;53.01
32243;BME280;18731;42.830;24.390;2023-03-04T12:45:46;94163.94;;;12.01;53.58
32243;BME280;18731;42.830;24.390;2023-03-04T12:48:40;94153.34;;;12.05;54.86
32243;BME280;18731;42.830;24.390;2023-03-04T12:51:30;94148.94;;;12.12;53.36
32243;BME280;18731;42.830;24.390;2023-03-04T12:54:16;94154.03;;;12.02;53.83
32243;BME280;18731;42.830;24.390;2023-03-04T12:56:53;94144.69;;;11.96;54.32
32243;BME280;18731;42.830;24.390;2023-03-04T12:59:22;94149.38;;;11.71;54.68
32243;BME280;18731;42.830;24.390;2023-03-04T13:02:05;94147.81;;;11.54;54.87
32243;BME280;18731;42.830;24.390;2023-03-04T13:10:06;94130.06;;;12.91;53.34
32243;BME280;18731;42.830;24.390;2023-03-04T13:12:52;94123.09;;;12.86;51.15
32243;BME280;18731;42.830;24.390;2023-03-04T13:17:55;94120.53;;;12.74;52.40
32243;BME280;18731;42.830;24.390;2023-03-04T13:25:30;94112.38;;;12.86;50.99
32243;BME280;18731;42.830;24.390;2023-03-04T13:43:46;94103.53;;;12.67;50.21
32243;BME280;18731;42.830;24.390;2023-03-04T14:01:35;94087.91;;;11.27;53.93
32243;BME280;18731;42.830;24.390;2023-03-04T14:04:23;94085.53;;;11.10;54.45
32243;BME280;18731;42.830;24.390;2023-03-04T14:06:52;94077.97;;;11.12;54.89
32243;BME280;18731;42.830;24.390;2023-03-04T14:09:30;94079.03;;;11.23;54.61
32243;BME280;18731;42.830;24.390;2023-03-04T14:12:13;94081.88;;;11.30;54.15
32243;BME280;18731;42.830;24.390;2023-03-04T14:14:55;94077.47;;;11.22;54.10
32243;BME280;18731;42.830;24.390;2023-03-04T14:17:26;94075.41;;;11.15;54.75
32243;BME280;18731;42.830;24.390;2023-03-04T14:19:52;94073.13;;;11.02;55.06
32243;BME280;18731;42.830;24.390;2023-03-04T14:22:23;94077.16;;;10.95;54.91
32243;BME280;18731;42.830;24.390;2023-03-04T14:27:27;94074.72;;;10.90;55.19
32243;BME280;18731;42.830;24.390;2023-03-04T14:29:58;94071.06;;;10.83;55.89
32243;BME280;18731;42.830;24.390;2023-03-04T14:32:26;94063.06;;;10.83;55.27
32243;BME280;18731;42.830;24.390;2023-03-04T14:35:04;94062.47;;;10.89;55.62
32243;BME280;18731;42.830;24.390;2023-03-04T14:37:42;94065.16;;;10.89;56.22
32243;BME280;18731;42.830;24.390;2023-03-04T14:40:33;94059.47;;;10.91;56.42
32243;BME280;18731;42.830;24.390;2023-03-04T14:45:39;94046.31;;;10.70;55.71
32243;BME280;18731;42.830;24.390;2023-03-04T14:48:07;94062.31;;;10.70;55.62
32243;BME280;18731;42.830;24.390;2023-03-04T14:50:33;94068.56;;;10.62;56.25
32243;BME280;18731;42.830;24.390;2023-03-04T14:55:35;94064.81;;;10.51;56.58
32243;BME280;18731;42.830;24.390;2023-03-04T14:58:15;94063.03;;;10.55;56.60
32243;BME280;18731;42.830;24.390;2023-03-04T15:00:44;94061.28;;;10.47;56.77
32243;BME280;18731;42.830;24.390;2023-03-04T15:03:22;94055.94;;;10.35;57.05
32243;BME280;18731;42.830;24.390;2023-03-04T15:05:49;94053.28;;;10.22;57.20
32243;BME280;18731;42.830;24.390;2023-03-04T15:10:52;94054.16;;;10.14;57.98
32243;BME280;18731;42.830;24.390;2023-03-04T15:13:39;94048.59;;;10.07;58.51
32243;BME280;18731;42.830;24.390;2023-03-04T15:16:06;94049.72;;;10.06;58.19
32243;BME280;18731;42.830;24.390;2023-03-04T15:18:32;94047.72;;;10.03;58.70
32243;BME280;18731;42.830;24.390;2023-03-04T15:21:23;94044.38;;;10.06;59.87
32243;BME280;18731;42.830;24.390;2023-03-04T15:23:48;94032.84;;;9.90;60.25
32243;BME280;18731;42.830;24.390;2023-03-04T15:26:14;94055.94;;;9.98;60.73
32243;BME280;18731;42.830;24.390;2023-03-04T15:28:41;94051.03;;;10.00;60.05
32243;BME280;18731;42.830;24.390;2023-03-04T15:31:15;94049.06;;;9.97;60.21
32243;BME280;18731;42.830;24.390;2023-03-04T15:33:41;94047.72;;;10.03;60.53
32243;BME280;18731;42.830;24.390;2023-03-04T15:36:11;94028.16;;;9.99;61.56
32243;BME280;18731;42.830;24.390;2023-03-04T15:38:40;94041.16;;;10.13;61.97
32243;BME280;18731;42.830;24.390;2023-03-04T15:41:09;94042.63;;;10.22;61.83
32243;BME280;18731;42.830;24.390;2023-03-04T15:43:36;94046.25;;;10.30;62.83
32243;BME280;18731;42.830;24.390;2023-03-04T15:46:02;94041.72;;;10.30;63.35
32243;BME280;18731;42.830;24.390;2023-03-04T15:48:29;94037.16;;;10.31;63.01
32243;BME280;18731;42.830;24.390;2023-03-04T15:51:01;94038.06;;;10.23;63.05
32243;BME280;18731;42.830;24.390;2023-03-04T15:53:32;94043.25;;;10.31;63.76
32243;BME280;18731;42.830;24.390;2023-03-04T15:56:01;94041.03;;;10.34;62.98
32243;BME280;18731;42.830;24.390;2023-03-04T15:58:28;94017.69;;;10.18;63.69
32243;BME280;18731;42.830;24.390;2023-03-04T16:00:54;94027.94;;;10.28;61.73
32243;BME280;18731;42.830;24.390;2023-03-04T16:03:20;94042.28;;;10.24;61.16
32243;BME280;18731;42.830;24.390;2023-03-04T16:05:49;94040.59;;;10.19;62.93
32243;BME280;18731;42.830;24.390;2023-03-04T16:08:17;94041.25;;;10.16;64.57
32243;BME280;18731;42.830;24.390;2023-03-04T16:10:43;94045.59;;;10.09;64.58
32243;BME280;18731;42.830;24.390;2023-03-04T16:13:22;94042.38;;;10.03;65.84
32243;BME280;18731;42.830;24.390;2023-03-04T16:15:49;94045.72;;;10.00;64.31
32243;BME280;18731;42.830;24.390;2023-03-04T16:18:15;94046.28;;;10.06;63.65
32243;BME280;18731;42.830;24.390;2023-03-04T16:20:43;94036.84;;;9.96;64.22
32243;BME280;18731;42.830;24.390;2023-03-04T16:23:13;94050.38;;;10.03;65.48
32243;BME280;18731;42.830;24.390;2023-03-04T16:25:42;94053.50;;;10.05;65.57
32243;BME280;18731;42.830;24.390;2023-03-04T16:28:10;94056.16;;;10.05;65.39
32243;BME280;18731;42.830;24.390;2023-03-04T16:30:36;94059.50;;;10.02;65.25
32243;BME280;18731;42.830;24.390;2023-03-04T16:33:02;94060.72;;;10.05;65.28
32243;BME280;18731;42.830;24.390;2023-03-04T16:35:28;94066.94;;;10.09;65.32
32243;BME280;18731;42.830;24.390;2023-03-04T16:37:54;94056.38;;;10.12;66.48
32243;BME280;18731;42.830;24.390;2023-03-04T16:40:25;94063.03;;;10.06;67.49
32243;BME280;18731;42.830;24.390;2023-03-04T16:42:51;94049.72;;;9.94;67.64
32243;BME280;18731;42.830;24.390;2023-03-04T16:45:20;94053.94;;;9.95;67.46
32243;BME280;18731;42.830;24.390;2023-03-04T16:47:46;94061.94;;;9.95;67.33
32243;BME280;18731;42.830;24.390;2023-03-04T16:50:14;94069.50;;;9.93;68.00
32243;BME280;18731;42.830;24.390;2023-03-04T16:52:43;94059.59;;;9.93;68.74
32243;BME280;18731;42.830;24.390;2023-03-04T16:55:19;94021.28;;;9.61;68.28
32243;BME280;18731;42.830;24.390;2023-03-04T16:57:46;94061.72;;;9.88;67.91
32243;BME280;18731;42.830;24.390;2023-03-04T17:00:13;94063.16;;;9.85;68.05
32243;BME280;18731;42.830;24.390;2023-03-04T17:02:39;94071.03;;;9.82;68.56
32243;BME280;18731;42.830;24.390;2023-03-04T17:05:05;94064.59;;;9.83;68.84
32243;BME280;18731;42.830;24.390;2023-03-04T17:07:31;94052.59;;;9.77;68.82
32243;BME280;18731;42.830;24.390;2023-03-04T17:09:57;94075.59;;;9.81;69.35
32243;BME280;18731;42.830;24.390;2023-03-04T17:12:22;94059.50;;;9.78;69.88
32243;BME280;18731;42.830;24.390;2023-03-04T17:14:48;94063.50;;;9.84;69.79
32243;BME280;18731;42.830;24.390;2023-03-04T17:17:13;94067.94;;;9.80;70.47
32243;BME280;18731;42.830;24.390;2023-03-04T17:19:39;94069.72;;;9.76;70.43
32243;BME280;18731;42.830;24.390;2023-03-04T17:22:05;94065.47;;;9.75;70.09
32243;BME280;18731;42.830;24.390;2023-03-04T17:24:31;94057.94;;;9.64;69.96
32243;BME280;18731;42.830;24.390;2023-03-04T17:26:57;94064.81;;;9.65;69.89
32243;BME280;18731;42.830;24.390;2023-03-04T17:29:23;94071.69;;;9.66;70.17
32243;BME280;18731;42.830;24.390;2023-03-04T17:31:48;94077.34;;;9.65;70.62
32243;BME280;18731;42.830;24.390;2023-03-04T17:34:14;94066.47;;;9.58;70.80
32243;BME280;18731;42.830;24.390;2023-03-04T17:36:39;94079.00;;;9.57;70.31
32243;BME280;18731;42.830;24.390;2023-03-04T17:39:05;94069.44;;;9.44;70.56
32243;BME280;18731;42.830;24.390;2023-03-04T17:41:31;94075.66;;;9.48;71.03
32243;BME280;18731;42.830;24.390;2023-03-04T17:43:57;94079.22;;;9.52;71.26
32243;BME280;18731;42.830;24.390;2023-03-04T17:46:25;94081.13;;;9.52;71.70
32243;BME280;18731;42.830;24.390;2023-03-04T17:48:53;94064.66;;;9.38;71.39
32243;BME280;18731;42.830;24.390;2023-03-04T17:51:35;94078.88;;;9.42;71.11
32243;BME280;18731;42.830;24.390;2023-03-04T17:54:03;94076.22;;;9.42;71.05
32243;BME280;18731;42.830;24.390;2023-03-04T17:56:30;94080.75;;;9.41;70.93
32243;BME280;18731;42.830;24.390;2023-03-04T17:58:58;94076.53;;;9.40;70.00
32243;BME280;18731;42.830;24.390;2023-03-04T18:01:24;94075.97;;;9.34;70.23
32243;BME280;18731;42.830;24.390;2023-03-04T18:03:51;94072.97;;;9.36;69.81
32243;BME280;18731;42.830;24.390;2023-03-04T18:06:17;94071.63;;;9.30;70.09
32243;BME280;18731;42.830;24.390;2023-03-04T18:08:43;94065.72;;;9.24;70.29
32243;BME280;18731;42.830;24.390;2023-03-04T18:11:10;94071.38;;;9.23;70.64
32243;BME280;18731;42.830;24.390;2023-03-04T18:13:40;94070.50;;;9.19;70.61
32243;BME280;18731;42.830;24.390;2023-03-04T18:16:06;94079.00;;;9.12;70.25
32243;BME280;18731;42.830;24.390;2023-03-04T18:18:34;94069.81;;;9.10;69.95
32243;BME280;18731;42.830;24.390;2023-03-04T18:21:01;94082.88;;;9.02;70.39
32243;BME280;18731;42.830;24.390;2023-03-04T18:23:27;94078.66;;;9.01;70.63
32243;BME280;18731;42.830;24.390;2023-03-04T18:25:53;94076.38;;;8.91;70.80
32243;BME280;18731;42.830;24.390;2023-03-04T18:28:19;94073.22;;;8.77;70.59
32243;BME280;18731;42.830;24.390;2023-03-04T18:30:45;94078.88;;;8.76;70.12
32243;BME280;18731;42.830;24.390;2023-03-04T18:33:11;94087.38;;;8.69;70.91
32243;BME280;18731;42.830;24.390;2023-03-04T18:35:36;94078.56;;;8.56;70.58
32243;BME280;18731;42.830;24.390;2023-03-04T18:38:02;94074.06;;;8.48;70.87
32243;BME280;18731;42.830;24.390;2023-03-04T18:40:28;94078.63;;;8.48;71.37
32243;BME280;18731;42.830;24.390;2023-03-04T18:42:55;94084.31;;;8.37;72.11
32243;BME280;18731;42.830;24.390;2023-03-04T18:45:25;94087.09;;;8.41;72.17
32243;BME280;18731;42.830;24.390;2023-03-04T18:47:51;94081.78;;;8.41;72.41
32243;BME280;18731;42.830;24.390;2023-03-04T18:50:19;94086.97;;;8.37;72.16
32243;BME280;18731;42.830;24.390;2023-03-04T18:52:47;94084.00;;;8.39;72.31